Time;durP1;ratioP1;P1;durP2;ratioP2;P2;SDS_P1;SDS_P2;PMS_P1;PMS_P2;Temp;Humidity;BMP_temperature;BMP_pressure;BME280_temperature;BME280_humidity;BME280_pressure;Samples;Min_cycle;Max_cycle;Signal;HPM_P1;HPM_P2
2022/03/06 00:01:26;;;;;;;34.65;14.35;;;;;;;;;;5038699;28;20076;-73
2022/03/06 00:03:54;;;;;;;33.50;14.43;;;;;;;;;;5035779;28;20049;-73
2022/03/06 00:06:22;;;;;;;32.78;13.30;;;;;;;;;;5033486;28;20053;-74
2022/03/06 00:08:50;;;;;;;38.88;14.35;;;;;;;;;;5037358;28;20049;-74
2022/03/06 00:11:18;;;;;;;39.35;13.15;;;;;;;;;;5038100;28;20060;-74
2022/03/06 00:13:46;;;;;;;32.35;13.43;;;;;;;;;;5034634;28;20052;-74
2022/03/06 00:16:14;;;;;;;36.25;13.80;;;;;;;;;;5038360;28;20122;-76
2022/03/06 00:18:42;;;;;;;35.70;13.68;;;;;;;;;;5037365;28;20572;-74
2022/03/06 00:21:12;;;;;;;32.10;13.52;;;;;;;;;;5034378;28;20084;-74
2022/03/06 00:23:40;;;;;;;37.95;14.57;;;;;;;;;;5036912;28;20115;-74
2022/03/06 00:26:08;;;;;;;32.75;14.40;;;;;;;;;;5036132;28;20088;-74
2022/03/06 00:28:37;;;;;;;34.92;14.82;;;;;;;;;;5037585;28;20519;-74
2022/03/06 00:31:05;;;;;;;33.58;13.27;;;;;;;;;;5037435;28;20440;-74
2022/03/06 00:33:34;;;;;;;30.30;12.82;;;;;;;;;;5036561;28;20072;-74
2022/03/06 00:36:03;;;;;;;29.92;12.88;;;;;;;;;;5033861;28;20231;-74
2022/03/06 00:38:30;;;;;;;35.53;13.80;;;;;;;;;;5037665;28;20076;-74
2022/03/06 00:40:58;;;;;;;30.23;12.43;;;;;;;;;;5035542;28;20524;-75
2022/03/06 00:43:26;;;;;;;29.63;13.98;;;;;;;;;;5033457;28;20045;-74
2022/03/06 00:45:55;;;;;;;32.25;13.93;;;;;;;;;;5036172;28;20049;-74
2022/03/06 00:48:22;;;;;;;34.38;15.55;;;;;;;;;;5035492;28;20048;-73
2022/03/06 00:50:50;;;;;;;30.60;13.63;;;;;;;;;;5033781;28;20061;-74
2022/03/06 00:53:18;;;;;;;36.10;13.68;;;;;;;;;;5033600;28;20091;-74
2022/03/06 00:55:45;;;;;;;34.85;12.95;;;;;;;;;;5034412;28;20104;-74
2022/03/06 00:58:13;;;;;;;37.97;13.75;;;;;;;;;;5037197;28;20221;-74
2022/03/06 01:00:42;;;;;;;34.08;12.35;;;;;;;;;;5033967;28;20547;-73
2022/03/06 01:03:14;;;;;;;32.72;13.13;;;;;;;;;;5034870;28;20053;-75
2022/03/06 01:05:42;;;;;;;32.05;13.50;;;;;;;;;;5033188;28;20053;-74
2022/03/06 01:08:10;;;;;;;41.45;13.77;;;;;;;;;;5037920;28;20148;-75
2022/03/06 01:10:39;;;;;;;35.40;12.15;;;;;;;;;;5035221;28;20071;-74
2022/03/06 01:13:10;;;;;;;36.53;12.93;;;;;;;;;;5035498;28;20049;-74
2022/03/06 01:15:39;;;;;;;31.38;12.27;;;;;;;;;;5034894;28;20221;-74
2022/03/06 01:18:07;;;;;;;27.35;12.52;;;;;;;;;;5033681;28;20045;-75
2022/03/06 01:20:36;;;;;;;38.42;14.35;;;;;;;;;;5034971;28;20134;-75
2022/03/06 01:23:04;;;;;;;36.45;13.70;;;;;;;;;;5035064;28;20049;-74
2022/03/06 01:25:33;;;;;;;36.50;13.65;;;;;;;;;;5034403;28;20204;-75
2022/03/06 01:28:01;;;;;;;32.28;14.00;;;;;;;;;;5036974;28;20053;-75
2022/03/06 01:30:30;;;;;;;29.23;12.95;;;;;;;;;;5035516;28;20057;-74
2022/03/06 01:32:58;;;;;;;36.20;14.23;;;;;;;;;;5033000;28;20053;-74
2022/03/06 01:35:26;;;;;;;30.92;13.40;;;;;;;;;;5034170;28;20057;-75
2022/03/06 01:37:55;;;;;;;35.58;14.27;;;;;;;;;;5036428;28;20044;-75
2022/03/06 01:40:22;;;;;;;34.17;13.57;;;;;;;;;;5031215;28;20488;-75
2022/03/06 01:42:51;;;;;;;32.85;12.98;;;;;;;;;;5031798;28;20647;-75
2022/03/06 01:45:21;;;;;;;31.83;14.13;;;;;;;;;;5034863;28;20040;-74
2022/03/06 01:47:50;;;;;;;30.13;13.52;;;;;;;;;;5035091;28;20140;-76
2022/03/06 01:50:19;;;;;;;29.05;12.52;;;;;;;;;;5033367;28;20045;-75
2022/03/06 01:52:48;;;;;;;33.35;15.02;;;;;;;;;;5032126;28;20397;-73
2022/03/06 01:55:18;;;;;;;30.95;13.32;;;;;;;;;;5033889;28;20128;-74
2022/03/06 01:57:46;;;;;;;30.00;13.00;;;;;;;;;;5035408;28;20049;-74
2022/03/06 02:00:15;;;;;;;29.85;12.52;;;;;;;;;;5033732;28;20475;-76
2022/03/06 02:02:43;;;;;;;32.17;12.25;;;;;;;;;;5035178;28;20048;-74
2022/03/06 02:05:11;;;;;;;36.38;13.82;;;;;;;;;;5032807;28;20057;-73
2022/03/06 02:07:39;;;;;;;37.45;13.43;;;;;;;;;;5034243;28;20041;-73
2022/03/06 02:10:08;;;;;;;26.33;12.43;;;;;;;;;;5033509;28;20048;-73
2022/03/06 02:12:38;;;;;;;31.48;14.18;;;;;;;;;;5034326;28;20766;-75
2022/03/06 02:15:07;;;;;;;31.45;14.77;;;;;;;;;;5032461;28;20072;-75
2022/03/06 02:17:37;;;;;;;33.40;13.27;;;;;;;;;;5030995;28;20544;-73
2022/03/06 02:20:06;;;;;;;37.10;13.30;;;;;;;;;;5032821;28;20140;-73
2022/03/06 02:22:37;;;;;;;31.10;13.82;;;;;;;;;;5034156;28;20680;-73
2022/03/06 02:25:05;;;;;;;37.38;14.55;;;;;;;;;;5031001;28;20061;-73
2022/03/06 02:27:33;;;;;;;39.17;13.93;;;;;;;;;;5032154;28;20311;-73
2022/03/06 02:30:00;;;;;;;34.25;15.00;;;;;;;;;;5034066;28;20057;-74
2022/03/06 02:32:28;;;;;;;32.03;13.52;;;;;;;;;;5035337;28;20108;-73
2022/03/06 02:34:56;;;;;;;40.25;15.77;;;;;;;;;;5033430;28;20136;-73
2022/03/06 02:37:23;;;;;;;37.95;14.40;;;;;;;;;;5034632;28;20052;-73
2022/03/06 02:39:52;;;;;;;37.38;15.55;;;;;;;;;;5032934;28;20066;-73
2022/03/06 02:42:24;;;;;;;37.53;15.00;;;;;;;;;;5035148;28;20178;-73
2022/03/06 02:44:52;;;;;;;38.00;14.32;;;;;;;;;;5036327;28;20094;-72
2022/03/06 02:47:20;;;;;;;41.65;16.90;;;;;;;;;;5035253;28;20084;-74
2022/03/06 02:49:47;;;;;;;40.90;16.83;;;;;;;;;;5032969;28;20267;-74
2022/03/06 02:52:15;;;;;;;37.58;16.38;;;;;;;;;;5034272;28;20053;-73
2022/03/06 02:54:43;;;;;;;40.20;17.27;;;;;;;;;;5036784;28;20053;-73
2022/03/06 02:57:13;;;;;;;40.35;16.52;;;;;;;;;;5031793;28;20106;-73
2022/03/06 02:59:43;;;;;;;41.17;17.60;;;;;;;;;;5032597;28;20053;-74
2022/03/06 03:02:11;;;;;;;43.00;15.57;;;;;;;;;;5032895;28;20192;-73
2022/03/06 03:04:39;;;;;;;37.50;15.32;;;;;;;;;;5032963;28;20739;-73
2022/03/06 03:07:07;;;;;;;39.72;15.30;;;;;;;;;;5034023;28;20167;-76
2022/03/06 03:09:35;;;;;;;46.28;18.02;;;;;;;;;;5030138;28;20163;-76
2022/03/06 03:12:04;;;;;;;43.88;17.27;;;;;;;;;;5033396;28;20563;-76
2022/03/06 03:14:35;;;;;;;41.65;18.15;;;;;;;;;;5031834;28;20164;-74
2022/03/06 03:17:03;;;;;;;38.13;17.30;;;;;;;;;;5035167;28;20048;-74
2022/03/06 03:19:31;;;;;;;38.58;16.67;;;;;;;;;;5029663;28;20049;-75
2022/03/06 03:21:59;;;;;;;43.92;17.70;;;;;;;;;;5029302;28;20052;-76
2022/03/06 03:24:26;;;;;;;40.40;17.80;;;;;;;;;;5036494;28;20862;-75
2022/03/06 03:26:54;;;;;;;41.45;17.50;;;;;;;;;;5030851;28;20056;-74
2022/03/06 03:29:22;;;;;;;48.47;18.23;;;;;;;;;;5030724;28;20294;-74
2022/03/06 03:31:51;;;;;;;44.45;17.92;;;;;;;;;;5028455;28;20053;-74
2022/03/06 03:34:19;;;;;;;41.10;18.58;;;;;;;;;;5030482;28;20064;-74
2022/03/06 03:36:46;;;;;;;46.50;19.30;;;;;;;;;;5028768;28;20085;-74
2022/03/06 03:39:14;;;;;;;49.05;20.58;;;;;;;;;;5033138;28;20936;-73
2022/03/06 03:41:41;;;;;;;50.25;19.83;;;;;;;;;;5031899;28;20512;-74
2022/03/06 03:44:09;;;;;;;47.72;19.90;;;;;;;;;;5029836;28;20052;-73
2022/03/06 03:47:02;;;;;;;46.40;21.25;;;;;;;;;;5030326;28;20140;-73
2022/03/06 03:49:30;;;;;;;48.25;19.42;;;;;;;;;;5030826;28;20095;-73
2022/03/06 03:51:58;;;;;;;49.85;19.55;;;;;;;;;;5030264;28;20064;-73
2022/03/06 03:54:25;;;;;;;43.63;19.55;;;;;;;;;;5026679;28;20053;-73
2022/03/06 03:56:53;;;;;;;40.00;18.95;;;;;;;;;;5030417;28;20052;-73
2022/03/06 03:59:21;;;;;;;44.33;19.95;;;;;;;;;;5033784;28;20411;-74
2022/03/06 04:01:48;;;;;;;47.40;20.35;;;;;;;;;;5029902;28;20140;-74
2022/03/06 04:04:17;;;;;;;40.90;19.67;;;;;;;;;;5030147;28;20091;-74
2022/03/06 04:06:45;;;;;;;43.10;20.63;;;;;;;;;;5032253;28;20398;-74
2022/03/06 04:09:13;;;;;;;51.10;19.80;;;;;;;;;;5032596;28;20073;-74
2022/03/06 04:11:41;;;;;;;45.42;17.80;;;;;;;;;;5030791;28;20502;-73
2022/03/06 04:14:09;;;;;;;46.60;20.17;;;;;;;;;;5031589;28;20046;-74
2022/03/06 04:16:37;;;;;;;44.03;19.23;;;;;;;;;;5030627;28;20466;-73
2022/03/06 04:19:05;;;;;;;48.83;19.90;;;;;;;;;;5030236;28;20091;-73
2022/03/06 04:21:35;;;;;;;46.70;19.30;;;;;;;;;;5031864;28;20045;-73
2022/03/06 04:24:02;;;;;;;41.83;20.85;;;;;;;;;;5033989;28;20140;-74
2022/03/06 04:26:31;;;;;;;47.03;21.30;;;;;;;;;;5031886;28;20061;-73
2022/03/06 04:28:59;;;;;;;46.92;21.65;;;;;;;;;;5028883;28;20111;-73
2022/03/06 04:31:27;;;;;;;44.88;19.42;;;;;;;;;;5030837;28;20095;-73
2022/03/06 04:33:55;;;;;;;42.80;18.90;;;;;;;;;;5029980;28;20558;-73
2022/03/06 04:36:23;;;;;;;43.88;18.17;;;;;;;;;;5032408;28;22337;-75
2022/03/06 04:38:52;;;;;;;42.78;19.60;;;;;;;;;;5029376;28;20418;-74
2022/03/06 04:41:20;;;;;;;43.65;19.33;;;;;;;;;;5032127;28;20136;-74
2022/03/06 04:43:48;;;;;;;39.30;18.17;;;;;;;;;;5034040;28;20076;-76
2022/03/06 04:46:16;;;;;;;46.00;19.85;;;;;;;;;;5031496;28;20088;-76
2022/03/06 04:49:08;;;;;;;39.97;18.08;;;;;;;;;;5036466;28;20075;-76
2022/03/06 04:51:36;;;;;;;42.72;19.58;;;;;;;;;;5032193;28;20046;-74
2022/03/06 04:54:05;;;;;;;47.20;19.63;;;;;;;;;;5032376;28;20374;-75
2022/03/06 04:56:33;;;;;;;42.78;18.73;;;;;;;;;;5033197;28;20056;-74
2022/03/06 04:59:01;;;;;;;42.28;17.73;;;;;;;;;;5036094;28;20053;-76
2022/03/06 05:01:29;;;;;;;45.60;19.25;;;;;;;;;;5033484;28;20052;-74
2022/03/06 05:03:57;;;;;;;50.63;19.70;;;;;;;;;;5036952;28;20083;-74
2022/03/06 05:06:27;;;;;;;40.15;17.52;;;;;;;;;;5032975;28;20443;-73
2022/03/06 05:08:56;;;;;;;44.40;19.42;;;;;;;;;;5036341;28;20045;-73
2022/03/06 05:11:28;;;;;;;47.20;18.90;;;;;;;;;;5035846;28;20090;-73
2022/03/06 05:14:03;;;;;;;42.38;18.73;;;;;;;;;;5032202;28;20099;-72
2022/03/06 05:16:36;;;;;;;48.30;20.42;;;;;;;;;;5037698;28;20320;-72
2022/03/06 05:19:07;;;;;;;44.63;17.73;;;;;;;;;;5034152;28;20129;-72
2022/03/06 05:21:38;;;;;;;40.58;18.27;;;;;;;;;;5031910;28;20049;-75
2022/03/06 05:24:06;;;;;;;40.42;17.38;;;;;;;;;;5031866;28;20461;-74
2022/03/06 05:26:35;;;;;;;43.70;18.85;;;;;;;;;;5032889;28;20477;-73
2022/03/06 05:29:03;;;;;;;36.83;18.00;;;;;;;;;;5035378;28;20056;-75
2022/03/06 05:31:31;;;;;;;47.70;18.90;;;;;;;;;;5033598;28;20575;-76
2022/03/06 05:33:59;;;;;;;40.88;17.52;;;;;;;;;;5033494;28;20057;-76
2022/03/06 05:36:27;;;;;;;46.08;19.83;;;;;;;;;;5033193;28;20063;-75
2022/03/06 05:38:54;;;;;;;43.60;18.50;;;;;;;;;;5034819;28;20080;-75
2022/03/06 05:41:22;;;;;;;39.35;17.85;;;;;;;;;;5036975;28;20041;-74
2022/03/06 05:43:51;;;;;;;38.00;18.35;;;;;;;;;;5037511;28;20130;-75
2022/03/06 05:46:19;;;;;;;39.47;19.52;;;;;;;;;;5033607;28;20147;-75
2022/03/06 05:48:48;;;;;;;43.47;19.33;;;;;;;;;;5038259;28;20053;-75
2022/03/06 05:51:16;;;;;;;46.08;18.92;;;;;;;;;;5035125;28;20049;-74
2022/03/06 05:53:44;;;;;;;45.28;19.92;;;;;;;;;;5030761;28;20145;-75
2022/03/06 05:56:11;;;;;;;42.45;19.75;;;;;;;;;;5034860;28;20056;-75
2022/03/06 05:58:39;;;;;;;44.53;17.83;;;;;;;;;;5036802;28;20461;-74
2022/03/06 06:01:09;;;;;;;40.95;18.83;;;;;;;;;;5032965;28;20052;-74
2022/03/06 06:04:01;;;;;;;38.75;19.20;;;;;;;;;;5030667;28;20499;-74
2022/03/06 06:06:29;;;;;;;42.80;19.83;;;;;;;;;;5034636;28;20135;-75
2022/03/06 06:08:57;;;;;;;44.08;18.65;;;;;;;;;;5033557;28;20135;-74
2022/03/06 06:11:25;;;;;;;48.33;19.45;;;;;;;;;;5031193;28;20125;-74
2022/03/06 06:13:52;;;;;;;49.22;19.23;;;;;;;;;;5034465;28;20053;-75
2022/03/06 06:16:21;;;;;;;41.38;18.27;;;;;;;;;;5036254;28;20064;-75
2022/03/06 06:18:49;;;;;;;48.75;18.60;;;;;;;;;;5034783;28;20060;-74
2022/03/06 06:21:19;;;;;;;49.30;20.50;;;;;;;;;;5032786;28;20137;-73
2022/03/06 06:23:47;;;;;;;44.17;18.85;;;;;;;;;;5030470;28;20131;-72
2022/03/06 06:26:15;;;;;;;39.92;18.80;;;;;;;;;;5034602;28;20045;-73
2022/03/06 06:28:43;;;;;;;37.25;18.63;;;;;;;;;;5033681;28;20057;-73
2022/03/06 06:31:14;;;;;;;46.08;18.42;;;;;;;;;;5032545;28;20052;-72
2022/03/06 06:33:44;;;;;;;42.05;19.13;;;;;;;;;;5031840;28;20057;-72
2022/03/06 06:36:12;;;;;;;44.42;18.95;;;;;;;;;;5033203;28;20064;-74
2022/03/06 06:38:40;;;;;;;38.67;18.65;;;;;;;;;;5032687;28;20091;-75
2022/03/06 06:41:12;;;;;;;38.17;17.02;;;;;;;;;;5032836;28;20047;-73
2022/03/06 06:43:42;;;;;;;44.35;18.48;;;;;;;;;;5034865;28;20053;-73
2022/03/06 06:46:10;;;;;;;37.63;18.15;;;;;;;;;;5030255;28;20065;-73
2022/03/06 06:48:38;;;;;;;36.47;16.88;;;;;;;;;;5036277;28;20048;-73
2022/03/06 06:57:18;;;;;;;37.78;15.52;;;;;;;;;;5033318;28;20095;-75
2022/03/06 06:59:46;;;;;;;40.13;16.73;;;;;;;;;;5032733;28;20152;-74
2022/03/06 07:02:17;;;;;;;41.35;18.63;;;;;;;;;;5031437;28;20072;-74
2022/03/06 07:04:48;;;;;;;44.55;20.77;;;;;;;;;;5029674;28;20053;-74
2022/03/06 07:07:18;;;;;;;35.95;17.63;;;;;;;;;;5030014;28;20342;-75
2022/03/06 07:09:48;;;;;;;41.45;18.80;;;;;;;;;;5033039;28;20052;-72
2022/03/06 07:12:23;;;;;;;38.50;18.95;;;;;;;;;;5030633;28;20053;-75
2022/03/06 07:14:53;;;;;;;47.95;22.05;;;;;;;;;;5030025;28;20128;-74
2022/03/06 07:17:21;;;;;;;48.20;20.90;;;;;;;;;;5016832;28;20057;-74
2022/03/06 07:19:51;;;;;;;49.40;21.33;;;;;;;;;;5028607;28;20087;-74
2022/03/06 07:22:21;;;;;;;44.00;19.48;;;;;;;;;;5030279;28;20094;-72
2022/03/06 07:24:49;;;;;;;38.22;17.17;;;;;;;;;;5031051;28;20141;-72
2022/03/06 07:27:21;;;;;;;34.55;16.30;;;;;;;;;;5033870;28;20558;-73
2022/03/06 07:30:12;;;;;;;;;;;;;;;;;;5038276;28;20522;-73
2022/03/06 07:33:07;;;;;;;36.70;15.60;;;;;;;;;;5033192;28;19951;-73
2022/03/06 07:35:38;;;;;;;29.92;15.95;;;;;;;;;;5031228;28;20487;-74
2022/03/06 07:38:07;;;;;;;28.08;14.43;;;;;;;;;;5030338;28;20041;-74
2022/03/06 07:40:35;;;;;;;31.75;14.10;;;;;;;;;;5033406;28;20140;-74
2022/03/06 07:43:03;;;;;;;33.00;14.50;;;;;;;;;;5032514;28;20057;-75
2022/03/06 07:45:31;;;;;;;27.50;14.30;;;;;;;;;;5029918;28;20052;-75
2022/03/06 07:47:58;;;;;;;31.98;13.55;;;;;;;;;;5028180;28;20057;-75
2022/03/06 07:50:27;;;;;;;30.75;13.18;;;;;;;;;;5032532;28;20329;-75
2022/03/06 07:52:56;;;;;;;31.70;14.35;;;;;;;;;;5031454;28;20053;-75
2022/03/06 07:55:25;;;;;;;33.05;14.52;;;;;;;;;;5031030;28;20045;-75
2022/03/06 07:57:53;;;;;;;34.00;13.68;;;;;;;;;;5032061;28;20149;-74
2022/03/06 08:00:20;;;;;;;34.95;15.15;;;;;;;;;;5031885;28;20436;-75
2022/03/06 08:02:48;;;;;;;24.40;13.68;;;;;;;;;;5028993;28;20299;-74
2022/03/06 08:05:16;;;;;;;22.38;12.40;;;;;;;;;;5031915;28;20060;-73
2022/03/06 08:07:44;;;;;;;29.63;12.23;;;;;;;;;;5031651;28;20132;-74
2022/03/06 08:10:12;;;;;;;28.05;12.60;;;;;;;;;;5030521;28;20575;-73
2022/03/06 08:12:42;;;;;;;23.98;13.40;;;;;;;;;;5029726;28;20072;-74
2022/03/06 08:15:10;;;;;;;26.13;12.82;;;;;;;;;;5032405;28;20341;-74
2022/03/06 08:17:38;;;;;;;22.42;11.15;;;;;;;;;;5032437;28;20138;-74
2022/03/06 08:20:07;;;;;;;19.40;10.60;;;;;;;;;;5034868;28;20379;-74
2022/03/06 08:22:35;;;;;;;19.98;11.30;;;;;;;;;;5032616;28;20037;-75
2022/03/06 08:25:04;;;;;;;18.83;10.15;;;;;;;;;;5040764;28;20084;-76
2022/03/06 08:27:32;;;;;;;26.30;11.38;;;;;;;;;;5037112;28;20069;-76
2022/03/06 08:30:01;;;;;;;21.05;11.70;;;;;;;;;;5033441;28;20134;-76
2022/03/06 08:32:29;;;;;;;20.33;11.18;;;;;;;;;;5034781;28;20159;-74
2022/03/06 08:34:57;;;;;;;22.55;11.48;;;;;;;;;;5032972;28;20046;-75
2022/03/06 08:37:24;;;;;;;18.20;9.55;;;;;;;;;;5038939;28;20457;-75
2022/03/06 08:39:52;;;;;;;23.75;9.88;;;;;;;;;;5036671;28;20061;-74
2022/03/06 08:42:19;;;;;;;21.15;10.13;;;;;;;;;;5037476;28;20049;-75
2022/03/06 08:44:47;;;;;;;18.10;10.43;;;;;;;;;;5038923;28;20087;-74
2022/03/06 08:47:16;;;;;;;16.00;9.00;;;;;;;;;;5036508;28;20497;-75
2022/03/06 08:49:44;;;;;;;21.42;10.50;;;;;;;;;;5032443;28;20053;-76
2022/03/06 08:52:12;;;;;;;14.75;8.57;;;;;;;;;;5033937;28;20045;-75
2022/03/06 08:54:40;;;;;;;19.15;11.02;;;;;;;;;;5035336;28;20118;-75
2022/03/06 08:57:08;;;;;;;15.95;9.68;;;;;;;;;;5033615;28;20513;-76
2022/03/06 08:59:36;;;;;;;16.00;9.63;;;;;;;;;;5033186;28;20064;-74
2022/03/06 09:02:05;;;;;;;21.58;10.05;;;;;;;;;;5033419;28;20041;-73
2022/03/06 09:04:34;;;;;;;20.63;8.88;;;;;;;;;;5032877;28;20077;-75
2022/03/06 09:07:02;;;;;;;17.77;8.45;;;;;;;;;;5033923;28;20283;-75
2022/03/06 09:09:30;;;;;;;12.75;7.78;;;;;;;;;;5037647;28;20053;-73
2022/03/06 09:11:58;;;;;;;16.90;9.63;;;;;;;;;;5034676;28;20065;-71
2022/03/06 09:14:26;;;;;;;15.98;8.95;;;;;;;;;;5033467;28;20191;-76
2022/03/06 09:16:53;;;;;;;18.27;9.35;;;;;;;;;;5037555;28;20037;-74
2022/03/06 09:19:21;;;;;;;15.07;8.35;;;;;;;;;;5035706;28;20148;-74
2022/03/06 09:21:50;;;;;;;15.27;8.40;;;;;;;;;;5035199;28;20052;-74
2022/03/06 09:24:18;;;;;;;18.58;9.25;;;;;;;;;;5033378;28;20051;-74
2022/03/06 09:26:47;;;;;;;16.55;8.30;;;;;;;;;;5031787;28;20123;-75
2022/03/06 09:29:14;;;;;;;15.57;8.63;;;;;;;;;;5032939;28;20057;-74
2022/03/06 09:32:06;;;;;;;16.60;8.70;;;;;;;;;;5035170;28;20086;-74
2022/03/06 09:34:58;;;;;;;17.58;8.30;;;;;;;;;;5035729;28;20139;-74
2022/03/06 09:37:28;;;;;;;14.73;8.02;;;;;;;;;;5035320;28;20129;-74
2022/03/06 09:39:55;;;;;;;16.00;8.27;;;;;;;;;;5034463;28;20062;-74
2022/03/06 09:42:23;;;;;;;13.35;7.28;;;;;;;;;;5035018;28;20053;-74
2022/03/06 09:44:51;;;;;;;10.32;6.55;;;;;;;;;;5038106;28;20052;-74
2022/03/06 09:47:19;;;;;;;11.55;6.63;;;;;;;;;;5033145;28;20049;-74
2022/03/06 09:49:47;;;;;;;16.08;7.18;;;;;;;;;;5032774;28;20490;-74
2022/03/06 09:52:15;;;;;;;14.98;7.45;;;;;;;;;;5031206;28;20493;-73
2022/03/06 09:54:44;;;;;;;16.80;8.45;;;;;;;;;;5030695;28;21582;-72
2022/03/06 09:57:17;;;;;;;15.10;6.80;;;;;;;;;;5033383;28;20049;-72
2022/03/06 09:59:45;;;;;;;19.83;10.00;;;;;;;;;;5032813;28;20080;-72
2022/03/06 10:02:13;;;;;;;14.43;7.55;;;;;;;;;;5034082;28;20052;-76
2022/03/06 10:04:43;;;;;;;14.85;8.07;;;;;;;;;;5031051;28;20466;-72
2022/03/06 10:07:11;;;;;;;15.20;7.07;;;;;;;;;;5030881;28;20051;-75
2022/03/06 10:09:44;;;;;;;15.88;7.63;;;;;;;;;;5035592;28;20131;-75
2022/03/06 10:12:20;;;;;;;14.45;8.65;;;;;;;;;;5036672;28;20144;-75
2022/03/06 10:14:48;;;;;;;16.25;8.15;;;;;;;;;;5031632;28;20056;-75
2022/03/06 10:17:18;;;;;;;13.75;7.38;;;;;;;;;;5031871;28;20596;-72
2022/03/06 10:19:52;;;;;;;12.93;7.57;;;;;;;;;;5030333;28;20052;-72
2022/03/06 10:22:21;;;;;;;16.63;7.28;;;;;;;;;;5037550;28;20087;-71
2022/03/06 10:24:49;;;;;;;15.32;8.40;;;;;;;;;;5034381;28;20148;-75
2022/03/06 10:27:16;;;;;;;11.95;6.65;;;;;;;;;;5035035;28;20531;-72
2022/03/06 10:29:45;;;;;;;13.88;7.18;;;;;;;;;;5034777;28;20407;-71
2022/03/06 10:32:13;;;;;;;14.80;6.90;;;;;;;;;;5035035;28;20160;-72
2022/03/06 10:34:42;;;;;;;12.82;7.13;;;;;;;;;;5034647;28;20544;-72
2022/03/06 10:37:13;;;;;;;15.73;7.65;;;;;;;;;;5033381;28;20049;-75
2022/03/06 10:39:44;;;;;;;14.60;7.68;;;;;;;;;;5032887;28;20607;-75
2022/03/06 10:42:12;;;;;;;13.25;7.85;;;;;;;;;;5032025;28;20168;-73
2022/03/06 10:44:44;;;;;;;13.30;7.30;;;;;;;;;;5030509;28;20429;-74
2022/03/06 10:47:19;;;;;;;16.48;7.32;;;;;;;;;;5033031;28;20576;-74
2022/03/06 10:49:59;;;;;;;11.50;7.22;;;;;;;;;;5034726;28;20475;-73
2022/03/06 10:52:26;;;;;;;12.82;6.68;;;;;;;;;;5031849;28;20146;-73
2022/03/06 10:54:55;;;;;;;10.82;6.35;;;;;;;;;;5033392;28;20126;-74
2022/03/06 10:57:24;;;;;;;15.90;7.80;;;;;;;;;;5034113;28;20073;-75
2022/03/06 10:59:52;;;;;;;12.88;7.38;;;;;;;;;;5032850;28;20127;-74
2022/03/06 11:02:24;;;;;;;13.02;6.70;;;;;;;;;;5028241;28;20153;-75
2022/03/06 11:04:56;;;;;;;14.07;7.05;;;;;;;;;;5034657;28;20056;-75
2022/03/06 11:07:27;;;;;;;12.40;6.82;;;;;;;;;;5031136;28;20053;-76
2022/03/06 11:09:57;;;;;;;14.63;8.10;;;;;;;;;;5031931;28;20073;-77
2022/03/06 11:12:32;;;;;;;13.32;6.88;;;;;;;;;;5031043;28;20045;-77
2022/03/06 11:15:00;;;;;;;13.77;7.80;;;;;;;;;;5034236;28;20060;-74
2022/03/06 11:17:30;;;;;;;13.38;7.18;;;;;;;;;;5029756;28;20056;-73
2022/03/06 11:19:58;;;;;;;14.55;7.63;;;;;;;;;;5029417;28;20059;-73
2022/03/06 11:22:29;;;;;;;13.48;7.53;;;;;;;;;;5030820;28;20171;-75
2022/03/06 11:25:01;;;;;;;12.32;7.28;;;;;;;;;;5030891;28;20440;-73
2022/03/06 11:27:38;;;;;;;11.38;6.72;;;;;;;;;;5031093;28;20049;-74
2022/03/06 11:30:10;;;;;;;14.25;7.00;;;;;;;;;;5028935;28;20486;-73
2022/03/06 11:32:41;;;;;;;13.55;7.28;;;;;;;;;;5032276;28;20536;-74
2022/03/06 11:35:10;;;;;;;14.73;7.85;;;;;;;;;;5032967;28;20053;-74
2022/03/06 11:37:49;;;;;;;14.40;7.13;;;;;;;;;;5030953;28;20509;-76
2022/03/06 11:40:35;;;;;;;14.00;8.05;;;;;;;;;;5029242;28;20509;-76
2022/03/06 11:43:02;;;;;;;14.48;7.55;;;;;;;;;;5031361;28;20812;-74
2022/03/06 11:45:43;;;;;;;11.77;6.93;;;;;;;;;;5029693;28;20064;-76
2022/03/06 11:48:21;;;;;;;14.18;7.82;;;;;;;;;;5034506;28;20053;-77
2022/03/06 11:51:04;;;;;;;14.10;8.18;;;;;;;;;;5036036;28;20071;-76
2022/03/06 11:53:56;;;;;;;14.98;7.55;;;;;;;;;;5030947;28;20169;-76
2022/03/06 11:56:47;;;;;;;15.57;7.38;;;;;;;;;;5034297;28;20064;-76
2022/03/06 11:59:38;;;;;;;13.55;7.30;;;;;;;;;;5030869;28;20136;-76
2022/03/06 12:02:15;;;;;;;12.77;7.03;;;;;;;;;;5016661;28;20457;-76
2022/03/06 12:04:47;;;;;;;10.60;6.60;;;;;;;;;;5039493;28;20045;-77
2022/03/06 12:07:16;;;;;;;12.10;6.93;;;;;;;;;;5036312;28;20049;-78
2022/03/06 12:09:44;;;;;;;14.73;8.13;;;;;;;;;;5035160;28;20140;-77
2022/03/06 12:12:13;;;;;;;16.38;7.60;;;;;;;;;;5038831;28;20116;-76
2022/03/06 12:14:42;;;;;;;13.52;7.13;;;;;;;;;;5037984;28;20055;-74
2022/03/06 12:17:23;;;;;;;12.82;7.18;;;;;;;;;;5034441;28;20049;-75
2022/03/06 12:20:09;;;;;;;14.55;7.75;;;;;;;;;;5039849;28;20049;-77
2022/03/06 12:22:45;;;;;;;11.98;7.63;;;;;;;;;;5038671;28;20316;-77
2022/03/06 12:25:20;;;;;;;14.40;8.32;;;;;;;;;;5040984;28;20610;-74
2022/03/06 12:28:06;;;;;;;11.00;6.72;;;;;;;;;;5036012;28;20057;-75
2022/03/06 12:30:59;;;;;;;12.65;7.32;;;;;;;;;;5039642;28;20064;-74
2022/03/06 12:33:31;;;;;;;12.80;8.15;;;;;;;;;;5040607;28;20300;-76
2022/03/06 12:36:13;;;;;;;11.95;7.55;;;;;;;;;;5036872;28;20061;-76
2022/03/06 12:38:42;;;;;;;14.80;7.78;;;;;;;;;;5037952;28;20107;-76
2022/03/06 12:41:10;;;;;;;16.88;8.93;;;;;;;;;;5033428;28;20056;-75
2022/03/06 12:43:44;;;;;;;13.68;7.25;;;;;;;;;;5037121;28;20481;-73
2022/03/06 12:46:11;;;;;;;;;;;;;;;;;;5039708;28;20053;-76
2022/03/06 12:48:39;;;;;;;13.70;8.48;;;;;;;;;;5038062;28;19929;-73
2022/03/06 12:51:07;;;;;;;14.70;8.70;;;;;;;;;;5034965;28;20852;-72
2022/03/06 12:54:03;;;;;;;15.50;8.18;;;;;;;;;;5036975;28;20059;-76
2022/03/06 12:56:32;;;;;;;14.60;8.52;;;;;;;;;;5040473;28;20045;-76
2022/03/06 12:59:02;;;;;;;14.40;7.82;;;;;;;;;;5039265;28;20072;-73
2022/03/06 13:01:33;;;;;;;15.00;8.25;;;;;;;;;;5036713;28;20090;-72
2022/03/06 13:04:01;;;;;;;13.30;8.10;;;;;;;;;;5032700;28;20081;-73
2022/03/06 13:06:29;;;;;;;11.50;6.82;;;;;;;;;;5030457;28;20763;-73
2022/03/06 13:08:57;;;;;;;17.35;8.60;;;;;;;;;;5031690;28;20127;-76
2022/03/06 13:11:26;;;;;;;16.73;8.25;;;;;;;;;;5031812;28;20543;-73
2022/03/06 13:14:01;;;;;;;13.57;7.60;;;;;;;;;;5032719;28;20042;-74
2022/03/06 13:16:30;;;;;;;12.77;7.18;;;;;;;;;;5030773;28;20053;-74
2022/03/06 13:19:02;;;;;;;15.90;9.82;;;;;;;;;;5032627;28;20050;-75
2022/03/06 13:21:29;;;;;;;15.23;7.90;;;;;;;;;;5033868;28;20049;-75
2022/03/06 13:23:59;;;;;;;15.27;8.40;;;;;;;;;;5030427;28;20045;-76
2022/03/06 13:26:29;;;;;;;16.20;7.75;;;;;;;;;;5031209;28;20455;-76
2022/03/06 13:28:57;;;;;;;13.55;8.40;;;;;;;;;;5034325;28;20045;-75
2022/03/06 13:31:25;;;;;;;11.35;8.15;;;;;;;;;;5035262;28;20049;-75
2022/03/06 13:34:02;;;;;;;14.52;7.57;;;;;;;;;;5035519;28;20065;-75
2022/03/06 13:36:30;;;;;;;13.13;6.40;;;;;;;;;;5032764;28;20051;-74
2022/03/06 13:39:01;;;;;;;12.65;6.80;;;;;;;;;;5028656;28;20155;-75
2022/03/06 13:41:31;;;;;;;11.60;6.47;;;;;;;;;;5034490;28;20151;-75
2022/03/06 13:43:59;;;;;;;11.45;6.50;;;;;;;;;;5032052;28;20152;-76
2022/03/06 13:46:27;;;;;;;11.05;6.93;;;;;;;;;;5033552;28;20059;-75
2022/03/06 13:49:10;;;;;;;11.88;5.88;;;;;;;;;;5033283;28;20460;-73
2022/03/06 13:51:39;;;;;;;10.95;6.47;;;;;;;;;;5033779;28;20053;-77
2022/03/06 13:54:07;;;;;;;9.27;6.07;;;;;;;;;;5033881;28;21158;-76
2022/03/06 13:56:37;;;;;;;9.57;6.15;;;;;;;;;;5034713;28;20049;-75
2022/03/06 13:59:06;;;;;;;10.43;5.93;;;;;;;;;;5032982;28;20136;-74
2022/03/06 14:02:06;;;;;;;8.82;4.53;;;;;;;;;;5036570;28;20064;-74
2022/03/06 14:04:34;;;;;;;8.68;5.30;;;;;;;;;;5038133;28;20048;-74
2022/03/06 14:07:03;;;;;;;9.55;5.15;;;;;;;;;;5036753;28;20251;-73
2022/03/06 14:09:32;;;;;;;12.20;5.60;;;;;;;;;;5035129;28;20584;-73
2022/03/06 14:12:09;;;;;;;9.60;5.28;;;;;;;;;;5036841;28;20053;-73
2022/03/06 14:14:39;;;;;;;9.88;4.55;;;;;;;;;;5030293;28;20454;-74
2022/03/06 14:17:08;;;;;;;10.50;4.72;;;;;;;;;;5035864;28;20531;-74
2022/03/06 14:19:36;;;;;;;7.70;4.72;;;;;;;;;;5033342;28;20148;-73
2022/03/06 14:22:04;;;;;;;6.78;4.25;;;;;;;;;;5036765;28;20156;-75
2022/03/06 14:24:38;;;;;;;7.38;4.10;;;;;;;;;;5034354;28;20049;-72
2022/03/06 14:27:06;;;;;;;9.13;4.35;;;;;;;;;;5034385;28;20045;-74
2022/03/06 14:29:59;;;;;;;7.18;4.25;;;;;;;;;;5032395;28;20052;-75
2022/03/06 14:32:26;;;;;;;8.60;3.78;;;;;;;;;;5035936;28;20053;-75
2022/03/06 14:34:56;;;;;;;8.20;3.88;;;;;;;;;;5030416;28;20765;-75
2022/03/06 14:37:23;;;;;;;5.72;3.80;;;;;;;;;;5034085;28;20060;-75
2022/03/06 14:39:51;;;;;;;5.88;3.58;;;;;;;;;;5033188;28;20139;-75
2022/03/06 14:42:25;;;;;;;5.88;3.83;;;;;;;;;;5031876;28;20060;-74
2022/03/06 14:45:14;;;;;;;8.43;3.80;;;;;;;;;;5033333;28;20041;-74
2022/03/06 14:47:43;;;;;;;7.38;4.28;;;;;;;;;;5031224;28;20060;-75